Time;durP1;ratioP1;P1;durP2;ratioP2;P2;SDS_P1;SDS_P2;PMS_P1;PMS_P2;Temp;Humidity;BMP_temperature;BMP_pressure;BME280_temperature;BME280_humidity;BME280_pressure;Samples;Min_cycle;Max_cycle;Signal;HPM_P1;HPM_P2
2023/03/29 00:04:47;;;;;;;2.90;1.25;;;9.10;93.70;;;;;;10522366;28;20019;-63
2023/03/29 00:09:48;;;;;;;3.83;1.45;;;9.10;93.70;;;;;;10522974;28;20052;-64
2023/03/29 00:14:49;;;;;;;2.95;1.40;;;9.00;93.70;;;;;;10518312;28;20487;-64
2023/03/29 00:19:50;;;;;;;3.22;1.40;;;9.10;93.80;;;;;;10522158;28;20085;-64
2023/03/29 00:24:54;;;;;;;4.07;1.40;;;9.00;93.80;;;;;;10513003;28;20023;-64
2023/03/29 00:29:55;;;;;;;3.08;1.60;;;9.00;93.80;;;;;;10521215;28;20039;-64
2023/03/29 00:34:55;;;;;;;1.92;1.20;;;9.00;93.80;;;;;;10523499;28;20030;-64
2023/03/29 00:39:56;;;;;;;1.90;1.38;;;9.00;93.80;;;;;;10521248;28;20020;-64
2023/03/29 00:44:59;;;;;;;2.80;1.50;;;9.00;93.80;;;;;;10513581;28;20027;-63
2023/03/29 00:50:13;;;;;;;2.22;1.25;;;9.00;93.80;;;;;;10518363;28;20016;-63
2023/03/29 00:55:18;;;;;;;2.15;1.10;;;9.00;93.80;;;;;;10519007;28;20112;-64
2023/03/29 01:00:23;;;;;;;2.45;1.70;;;9.00;93.90;;;;;;10519031;28;20053;-63
2023/03/29 01:05:45;;;;;;;2.90;1.50;;;9.00;93.90;;;;;;10520640;28;20500;-64
2023/03/29 01:10:57;;;;;;;2.05;1.15;;;9.00;93.90;;;;;;10510613;28;20020;-64
2023/03/29 01:15:58;;;;;;;3.88;1.60;;;9.00;93.90;;;;;;10522985;28;20062;-64
2023/03/29 01:21:22;;;;;;;1.65;1.23;;;9.00;93.90;;;;;;10525183;28;20376;-64
2023/03/29 01:26:29;;;;;;;4.10;1.60;;;9.00;93.90;;;;;;10511149;28;20475;-64
2023/03/29 01:31:40;;;;;;;2.38;1.52;;;8.90;93.90;;;;;;10515260;28;20487;-65
2023/03/29 01:37:15;;;;;;;3.33;1.45;;;8.90;93.90;;;;;;10518329;28;20081;-65
2023/03/29 01:42:16;;;;;;;4.15;1.50;;;8.90;94.00;;;;;;10520186;28;20059;-64
2023/03/29 01:47:32;;;;;;;4.65;1.55;;;8.90;94.00;;;;;;10513628;28;20027;-64
2023/03/29 01:52:38;;;;;;;3.13;1.70;;;8.90;94.00;;;;;;10522649;28;20047;-64
2023/03/29 01:57:42;;;;;;;4.07;1.88;;;8.90;94.00;;;;;;10509798;28;20024;-65
2023/03/29 02:02:45;;;;;;;2.80;1.65;;;8.90;94.00;;;;;;10513255;28;20024;-63
2023/03/29 02:07:47;;;;;;;4.40;2.03;;;8.90;94.10;;;;;;10512366;28;20024;-64
2023/03/29 02:12:48;;;;;;;2.65;1.50;;;8.90;94.10;;;;;;10522259;28;20110;-64
2023/03/29 02:17:49;;;;;;;2.45;1.35;;;8.90;94.10;;;;;;10514668;28;20449;-64
2023/03/29 02:23:07;;;;;;;3.22;1.85;;;8.90;94.10;;;;;;10517563;28;20480;-64
2023/03/29 02:28:08;;;;;;;4.50;1.70;;;8.90;94.10;;;;;;10512648;28;20028;-65
2023/03/29 02:33:15;;;;;;;3.72;1.85;;;8.90;94.10;;;;;;10515899;28;20074;-65
2023/03/29 02:38:16;;;;;;;3.25;1.77;;;8.90;94.10;;;;;;10526831;28;20146;-64
2023/03/29 02:43:18;;;;;;;3.92;1.90;;;8.90;94.10;;;;;;10524701;28;20024;-63
2023/03/29 02:48:23;;;;;;;3.25;1.88;;;8.90;94.20;;;;;;10526065;28;20027;-64
2023/03/29 02:53:29;;;;;;;2.42;1.50;;;8.90;94.20;;;;;;10525115;28;20588;-63
2023/03/29 02:58:30;;;;;;;2.30;1.63;;;8.90;94.20;;;;;;10519139;28;20024;-63
2023/03/29 03:03:31;;;;;;;4.05;1.60;;;8.90;94.20;;;;;;10525816;28;20102;-64
2023/03/29 03:08:32;;;;;;;4.03;1.50;;;8.90;94.20;;;;;;10516359;28;20024;-64
2023/03/29 03:13:32;;;;;;;2.97;1.58;;;8.90;94.30;;;;;;10523316;28;20024;-64
2023/03/29 03:18:33;;;;;;;3.47;1.73;;;8.90;94.20;;;;;;10523260;28;20544;-65
2023/03/29 03:23:35;;;;;;;5.30;1.92;;;8.90;94.30;;;;;;10519984;28;20013;-64
2023/03/29 03:28:35;;;;;;;3.92;1.85;;;8.90;94.30;;;;;;10520068;28;20043;-64
2023/03/29 03:33:36;;;;;;;3.67;1.85;;;8.90;94.30;;;;;;10519839;28;20035;-65
2023/03/29 03:38:37;;;;;;;3.65;1.80;;;8.90;94.60;;;;;;10514687;28;20024;-63
2023/03/29 03:43:41;;;;;;;3.25;1.73;;;8.90;94.30;;;;;;10526934;28;20321;-64
2023/03/29 03:48:42;;;;;;;4.82;2.20;;;9.00;94.30;;;;;;10521023;28;20020;-63
2023/03/29 03:53:43;;;;;;;4.57;1.60;;;8.90;94.30;;;;;;10524394;28;20107;-63
2023/03/29 03:58:44;;;;;;;3.17;1.65;;;8.90;94.30;;;;;;10522262;28;20034;-64
2023/03/29 04:03:45;;;;;;;2.83;1.85;;;8.90;94.40;;;;;;10520121;28;20016;-64
2023/03/29 04:08:46;;;;;;;3.55;1.70;;;8.90;94.40;;;;;;10519278;28;20480;-64
2023/03/29 04:13:47;;;;;;;3.85;1.83;;;8.90;94.40;;;;;;10520618;28;20024;-64
2023/03/29 04:18:48;;;;;;;3.72;2.10;;;8.90;94.40;;;;;;10518074;28;20480;-64
2023/03/29 04:23:48;;;;;;;3.47;2.00;;;8.90;94.40;;;;;;10517700;28;20506;-64
2023/03/29 04:28:49;;;;;;;2.67;1.52;;;8.90;94.40;;;;;;10524407;28;20480;-63
2023/03/29 04:33:50;;;;;;;3.33;2.40;;;8.90;94.40;;;;;;10517078;28;20120;-63
2023/03/29 04:38:53;;;;;;;4.07;2.20;;;8.90;94.40;;;;;;10516474;28;20027;-64
2023/03/29 04:43:54;;;;;;;4.32;1.92;;;8.90;94.40;;;;;;10516779;28;20023;-63
2023/03/29 04:48:56;;;;;;;4.40;1.70;;;8.90;94.50;;;;;;10518260;28;20016;-65
2023/03/29 04:53:57;;;;;;;3.85;1.80;;;8.90;94.50;;;;;;10519831;28;20024;-63
2023/03/29 04:58:57;;;;;;;3.97;2.20;;;8.90;94.50;;;;;;10518252;28;20395;-64
2023/03/29 05:03:59;;;;;;;5.47;2.17;;;8.90;94.50;;;;;;10516778;28;20020;-63
2023/03/29 05:09:00;;;;;;;4.25;2.10;;;8.90;94.60;;;;;;10515814;28;20036;-64
2023/03/29 05:14:02;;;;;;;3.42;2.10;;;8.80;94.60;;;;;;10517952;28;20361;-64
2023/03/29 05:19:03;;;;;;;3.75;1.95;;;8.90;94.60;;;;;;10519460;28;20020;-64
2023/03/29 05:24:04;;;;;;;3.80;1.92;;;8.80;94.60;;;;;;10519885;28;21191;-64
2023/03/29 05:29:07;;;;;;;5.13;2.15;;;8.80;94.60;;;;;;10516760;28;20107;-64
2023/03/29 05:34:08;;;;;;;3.35;1.95;;;8.80;94.70;;;;;;10516932;28;20032;-64
2023/03/29 05:39:09;;;;;;;5.28;2.60;;;8.80;94.70;;;;;;10523384;28;20053;-64
2023/03/29 05:44:10;;;;;;;4.60;2.00;;;8.90;94.80;;;;;;10514927;28;20377;-63
2023/03/29 05:49:11;;;;;;;3.25;2.20;;;8.90;94.80;;;;;;10517521;28;20029;-63
2023/03/29 05:54:11;;;;;;;6.30;2.65;;;8.80;94.80;;;;;;10519796;28;20019;-64
2023/03/29 05:59:12;;;;;;;4.32;2.63;;;8.90;94.80;;;;;;10515729;28;20028;-64
2023/03/29 06:04:13;;;;;;;3.33;2.33;;;8.90;94.90;;;;;;10507068;28;20017;-64
2023/03/29 06:09:14;;;;;;;5.03;2.00;;;8.90;94.90;;;;;;10517602;28;20369;-63
2023/03/29 06:14:15;;;;;;;4.35;2.20;;;8.90;94.90;;;;;;10527424;28;20020;-63
2023/03/29 06:19:16;;;;;;;5.40;2.80;;;8.90;94.90;;;;;;10524551;28;20032;-63
2023/03/29 06:24:16;;;;;;;4.28;2.83;;;8.90;94.90;;;;;;10530963;28;20483;-63
2023/03/29 06:29:17;;;;;;;3.22;2.22;;;8.90;94.90;;;;;;10523503;28;20351;-63
2023/03/29 06:34:18;;;;;;;5.40;2.83;;;8.90;94.90;;;;;;10531274;28;20059;-65
2023/03/29 06:39:18;;;;;;;3.38;2.10;;;8.90;95.10;;;;;;10529813;28;20024;-64
2023/03/29 06:44:19;;;;;;;5.47;2.53;;;8.90;95.00;;;;;;10527066;28;20775;-64
2023/03/29 06:49:20;;;;;;;3.03;2.20;;;9.00;95.00;;;;;;10528089;28;20016;-64
2023/03/29 06:54:21;;;;;;;4.47;2.45;;;9.00;95.10;;;;;;10527139;28;20027;-64
2023/03/29 06:59:22;;;;;;;4.90;2.50;;;9.00;95.10;;;;;;10520687;28;20028;-63
2023/03/29 07:04:23;;;;;;;5.30;2.50;;;9.00;95.10;;;;;;10526988;28;20369;-64
2023/03/29 07:09:25;;;;;;;5.70;2.85;;;9.00;95.10;;;;;;10528055;28;20036;-64
2023/03/29 07:14:27;;;;;;;4.20;2.30;;;9.00;95.10;;;;;;10526241;28;20020;-64
2023/03/29 07:19:29;;;;;;;5.75;2.50;;;9.00;95.10;;;;;;10521325;28;20066;-64
2023/03/29 07:24:29;;;;;;;3.45;2.38;;;9.00;95.20;;;;;;10520340;28;20086;-64
2023/03/29 07:29:30;;;;;;;4.07;2.72;;;9.00;95.20;;;;;;10528237;28;20111;-64
2023/03/29 07:34:31;;;;;;;6.30;2.53;;;9.00;95.20;;;;;;10525505;28;20088;-64
2023/03/29 07:39:32;;;;;;;6.10;2.42;;;9.10;95.20;;;;;;10524698;28;20019;-64
2023/03/29 07:44:33;;;;;;;5.80;2.60;;;9.10;95.20;;;;;;10522033;28;20024;-62
2023/03/29 07:49:33;;;;;;;4.47;2.42;;;9.10;95.20;;;;;;10519829;28;20032;-64
2023/03/29 07:54:34;;;;;;;3.75;2.45;;;9.10;95.20;;;;;;10521563;28;20035;-63
2023/03/29 07:59:35;;;;;;;4.55;2.50;;;9.10;95.20;;;;;;10525771;28;20024;-63
2023/03/29 08:04:35;;;;;;;5.10;2.45;;;9.10;95.30;;;;;;10529330;28;20070;-64
2023/03/29 08:09:36;;;;;;;4.50;2.95;;;9.10;95.30;;;;;;10515896;28;20033;-64
2023/03/29 08:14:37;;;;;;;4.35;2.25;;;9.10;95.30;;;;;;10518374;28;20518;-64
2023/03/29 08:19:38;;;;;;;5.05;2.53;;;9.20;95.30;;;;;;10516926;28;20017;-64
2023/03/29 08:24:38;;;;;;;4.63;2.22;;;9.20;95.30;;;;;;10526125;28;20021;-68
2023/03/29 08:29:39;;;;;;;6.45;2.90;;;9.20;95.40;;;;;;10518052;28;20099;-63
2023/03/29 08:34:39;;;;;;;3.97;2.65;;;9.20;95.50;;;;;;10520985;28;20036;-63
2023/03/29 08:39:40;;;;;;;7.68;2.72;;;9.30;95.50;;;;;;10519079;28;20020;-62
2023/03/29 08:45:12;;;;;;;4.38;2.42;;;9.30;95.60;;;;;;10527329;28;20032;-63
2023/03/29 08:50:13;;;;;;;5.80;2.90;;;9.30;95.60;;;;;;10523100;28;20500;-63
2023/03/29 08:55:30;;;;;;;5.18;2.90;;;9.30;95.50;;;;;;10521500;28;20070;-63
2023/03/29 09:00:45;;;;;;;4.07;2.58;;;9.30;95.50;;;;;;10522743;28;20019;-62
2023/03/29 09:05:48;;;;;;;7.25;2.92;;;9.30;95.50;;;;;;10522108;28;20146;-64
2023/03/29 09:11:20;;;;;;;7.32;2.90;;;9.40;95.60;;;;;;10516533;28;20032;-62
2023/03/29 09:16:44;;;;;;;4.53;2.58;;;9.40;95.80;;;;;;10521886;28;20095;-63
2023/03/29 09:21:53;;;;;;;6.05;2.97;;;9.50;95.80;;;;;;10522510;28;20020;-64
2023/03/29 09:27:09;;;;;;;8.23;2.60;;;9.50;95.60;;;;;;10525244;28;20039;-64
2023/03/29 09:32:21;;;;;;;5.80;2.53;;;9.60;95.60;;;;;;10523070;28;20102;-64
2023/03/29 09:37:30;;;;;;;3.92;2.60;;;9.60;95.50;;;;;;10522809;28;20052;-64
2023/03/29 09:42:32;;;;;;;5.90;2.70;;;9.60;95.50;;;;;;10522813;28;20028;-63
2023/03/29 09:47:48;;;;;;;8.75;2.47;;;9.70;95.50;;;;;;10521353;28;20027;-64
2023/03/29 09:52:49;;;;;;;6.40;2.95;;;9.70;95.60;;;;;;10522038;28;20165;-64
2023/03/29 09:57:51;;;;;;;5.18;3.03;;;9.80;95.50;;;;;;10522564;28;20024;-63
2023/03/29 10:02:53;;;;;;;5.70;3.03;;;9.80;95.50;;;;;;10519170;28;20032;-64
2023/03/29 10:07:58;;;;;;;7.35;2.75;;;9.80;95.50;;;;;;10523383;28;20425;-64
2023/03/29 10:13:03;;;;;;;7.07;2.83;;;9.90;95.50;;;;;;10519093;28;20054;-64
2023/03/29 10:18:12;;;;;;;6.05;2.40;;;9.90;95.40;;;;;;10525447;28;20028;-64
2023/03/29 10:23:17;;;;;;;7.63;3.30;;;10.00;95.40;;;;;;10525446;28;20032;-64
2023/03/29 10:28:21;;;;;;;8.45;3.28;;;10.10;95.70;;;;;;10522096;28;20025;-65
2023/03/29 10:33:24;;;;;;;6.03;3.67;;;10.10;95.40;;;;;;10523641;28;20020;-64
2023/03/29 10:38:27;;;;;;;7.20;3.50;;;10.20;95.40;;;;;;10514130;28;20028;-64
2023/03/29 10:43:36;;;;;;;8.27;3.83;;;10.20;95.40;;;;;;10518875;28;20109;-64
2023/03/29 10:48:36;;;;;;;5.60;3.10;;;10.40;95.50;;;;;;10520932;28;20035;-63
2023/03/29 10:53:37;;;;;;;6.93;3.47;;;10.40;95.40;;;;;;10520833;28;20020;-64
2023/03/29 10:59:03;;;;;;;5.35;3.15;;;10.40;95.40;;;;;;10520858;28;20475;-64
2023/03/29 11:04:37;;;;;;;6.63;3.47;;;10.50;95.50;;;;;;10528201;28;21092;-65
2023/03/29 11:10:14;;;;;;;7.47;3.60;;;10.60;95.50;;;;;;10522603;28;20056;-67
2023/03/29 11:15:45;;;;;;;7.25;3.58;;;10.60;95.60;;;;;;10523880;28;20637;-64
2023/03/29 11:20:46;;;;;;;6.80;3.03;;;10.60;95.50;;;;;;10526104;28;20032;-64
2023/03/29 11:26:07;;;;;;;7.55;3.33;;;10.70;95.50;;;;;;10528209;28;20387;-65
2023/03/29 11:31:22;;;;;;;7.05;3.47;;;10.80;95.60;;;;;;10523140;28;20028;-65
2023/03/29 11:37:15;;;;;;;7.60;3.22;;;10.80;95.80;;;;;;10522325;28;20029;-63
2023/03/29 11:42:22;;;;;;;11.57;3.78;;;10.90;95.90;;;;;;10525863;28;20021;-64
2023/03/29 11:47:27;;;;;;;8.70;3.92;;;10.90;95.70;;;;;;10526502;28;20093;-64
2023/03/29 11:52:35;;;;;;;10.13;3.97;;;11.00;95.80;;;;;;10523574;28;20031;-65
2023/03/29 11:58:01;;;;;;;8.38;3.90;;;11.00;95.90;;;;;;10524520;28;20070;-64
2023/03/29 12:03:20;;;;;;;8.38;4.50;;;11.00;96.20;;;;;;10519263;28;20026;-63
2023/03/29 12:08:31;;;;;;;8.13;3.97;;;11.00;96.00;;;;;;10519191;28;20020;-64
2023/03/29 12:13:48;;;;;;;10.20;4.47;;;11.10;96.10;;;;;;10520735;28;20510;-63
2023/03/29 12:18:53;;;;;;;7.72;4.05;;;11.10;96.20;;;;;;10523934;28;20032;-63
2023/03/29 12:23:54;;;;;;;9.00;4.53;;;11.20;96.10;;;;;;10521804;28;20419;-64
2023/03/29 12:29:25;;;;;;;10.20;4.20;;;11.20;96.10;;;;;;10521467;28;20213;-64
2023/03/29 12:34:41;;;;;;;8.60;4.28;;;11.30;96.30;;;;;;10520546;28;20078;-64
2023/03/29 12:39:42;;;;;;;8.93;4.13;;;11.30;96.10;;;;;;10522940;28;20040;-64
2023/03/29 12:44:49;;;;;;;8.77;4.35;;;11.40;96.10;;;;;;10523262;28;20027;-64
2023/03/29 12:49:56;;;;;;;9.20;4.72;;;11.40;96.10;;;;;;10525054;28;20100;-64
2023/03/29 12:55:00;;;;;;;9.75;5.00;;;11.50;96.20;;;;;;10523014;28;20512;-64
2023/03/29 13:00:20;;;;;;;8.55;5.18;;;11.50;96.20;;;;;;10515262;28;20036;-66
2023/03/29 13:05:33;;;;;;;9.27;4.72;;;11.60;96.40;;;;;;10522884;28;20107;-63
2023/03/29 13:10:41;;;;;;;9.00;4.63;;;11.60;96.40;;;;;;10515496;28;20020;-64
2023/03/29 13:15:43;;;;;;;9.98;4.63;;;11.60;96.50;;;;;;10521968;28;20169;-64
2023/03/29 13:21:02;;;;;;;9.25;4.95;;;11.60;96.50;;;;;;10519567;28;20043;-64
2023/03/29 13:26:32;;;;;;;9.80;4.82;;;11.60;96.80;;;;;;10518830;28;20118;-63
2023/03/29 13:31:59;;;;;;;9.68;4.88;;;11.70;96.60;;;;;;10507281;28;20039;-64
2023/03/29 13:37:25;;;;;;;13.68;5.47;;;11.80;96.60;;;;;;10516269;28;20020;-64
2023/03/29 13:42:35;;;;;;;9.93;4.45;;;11.90;96.50;;;;;;10521742;28;20024;-65
2023/03/29 13:47:43;;;;;;;8.63;4.72;;;12.00;96.40;;;;;;10518306;28;20024;-63
2023/03/29 13:53:02;;;;;;;8.65;4.50;;;12.00;96.30;;;;;;10521433;28;20369;-64
2023/03/29 13:58:06;;;;;;;;;;;12.00;96.40;;;;;;10520325;28;20028;-64
2023/03/29 14:03:13;;;;;;;7.00;4.57;;;12.10;96.60;;;;;;10519770;28;19994;-64
2023/03/29 14:08:52;;;;;;;7.35;4.22;;;12.10;96.30;;;;;;10521194;28;20032;-64
2023/03/29 14:13:58;;;;;;;7.57;4.57;;;12.10;96.50;;;;;;10430143;28;20037;-64
2023/03/29 14:19:02;;;;;;;7.53;4.80;;;12.10;96.40;;;;;;10508864;28;20520;-63
2023/03/29 14:24:03;;;;;;;8.02;4.65;;;12.10;96.40;;;;;;10515271;28;20039;-64
2023/03/29 14:29:08;;;;;;;9.30;4.47;;;12.10;96.50;;;;;;10522062;28;20496;-64
2023/03/29 14:34:17;;;;;;;6.75;4.00;;;12.10;96.60;;;;;;10517042;28;20514;-63
2023/03/29 14:39:20;;;;;;;7.32;4.55;;;12.10;96.70;;;;;;10522061;28;20400;-63
2023/03/29 14:44:28;;;;;;;8.07;4.47;;;12.10;96.70;;;;;;10528592;28;20048;-65
2023/03/29 14:49:30;;;;;;;6.63;4.50;;;12.10;96.80;;;;;;10528238;28;20564;-64
2023/03/29 14:54:33;;;;;;;8.40;4.60;;;12.10;96.80;;;;;;10526065;28;20067;-64
2023/03/29 14:59:33;;;;;;;7.05;4.75;;;12.10;96.90;;;;;;10523837;28;20016;-63
2023/03/29 15:04:36;;;;;;;9.90;4.25;;;12.00;97.00;;;;;;10521368;28;20035;-64
2023/03/29 15:09:38;;;;;;;10.77;4.40;;;12.00;97.10;;;;;;10527348;28;20031;-65
2023/03/29 15:14:40;;;;;;;7.32;4.40;;;12.00;97.20;;;;;;10526301;28;20032;-64
2023/03/29 15:19:40;;;;;;;9.45;5.57;;;12.00;97.20;;;;;;10526140;28;20040;-66
2023/03/29 15:24:46;;;;;;;9.48;5.22;;;12.00;97.50;;;;;;10521366;28;20034;-64
2023/03/29 15:29:47;;;;;;;8.82;5.43;;;12.10;97.80;;;;;;10524821;28;20111;-65
2023/03/29 15:35:03;;;;;;;11.82;5.65;;;12.20;97.90;;;;;;10526569;28;20486;-65
2023/03/29 15:40:08;;;;;;;10.35;6.22;;;12.10;98.10;;;;;;10521441;28;20059;-63
2023/03/29 15:45:14;;;;;;;11.05;6.45;;;12.20;98.10;;;;;;10518687;28;20348;-64
2023/03/29 15:50:15;;;;;;;11.10;6.82;;;12.20;98.20;;;;;;10528121;28;20487;-64
2023/03/29 15:55:16;;;;;;;10.88;5.97;;;12.20;98.20;;;;;;10523157;28;20028;-64
2023/03/29 16:00:19;;;;;;;11.32;6.72;;;12.20;98.40;;;;;;10524502;28;20024;-64
2023/03/29 16:05:20;;;;;;;10.85;6.85;;;12.10;98.40;;;;;;10524966;28;20032;-64
2023/03/29 16:10:21;;;;;;;13.27;7.32;;;12.20;98.50;;;;;;10522815;28;20028;-63
2023/03/29 16:15:23;;;;;;;11.20;6.53;;;12.10;98.50;;;;;;10523266;28;20035;-63
2023/03/29 16:20:24;;;;;;;11.55;7.03;;;12.10;98.50;;;;;;10524619;28;20030;-64
2023/03/29 16:25:24;;;;;;;10.38;6.18;;;12.10;98.50;;;;;;10526381;28;20042;-64
2023/03/29 16:30:25;;;;;;;12.90;6.57;;;12.10;98.60;;;;;;10522760;28;20042;-64
2023/03/29 16:35:29;;;;;;;13.52;6.75;;;12.00;98.60;;;;;;10523434;28;20484;-64
2023/03/29 16:40:29;;;;;;;14.18;7.40;;;12.00;98.70;;;;;;10522186;28;20042;-63
2023/03/29 16:45:30;;;;;;;14.70;7.63;;;12.00;99.10;;;;;;10519468;28;20061;-64
2023/03/29 16:50:31;;;;;;;13.52;7.70;;;12.10;99.00;;;;;;10523563;28;20425;-64
2023/03/29 16:55:31;;;;;;;17.90;7.78;;;12.10;99.10;;;;;;10522554;28;20020;-64
2023/03/29 17:00:33;;;;;;;14.35;8.07;;;12.00;99.20;;;;;;10523145;28;20035;-64
2023/03/29 17:05:40;;;;;;;15.85;8.98;;;12.00;99.20;;;;;;10521136;28;20039;-64
2023/03/29 17:10:41;;;;;;;15.07;8.85;;;12.00;99.30;;;;;;10522843;28;20293;-64
2023/03/29 17:15:41;;;;;;;15.68;8.32;;;12.00;99.40;;;;;;10523668;28;20032;-64
2023/03/29 17:20:42;;;;;;;15.70;8.30;;;12.00;99.40;;;;;;10521690;28;20502;-64
2023/03/29 17:25:43;;;;;;;14.07;7.85;;;11.90;99.50;;;;;;10521551;28;20047;-63
2023/03/29 17:30:45;;;;;;;12.93;6.75;;;11.90;99.50;;;;;;10520674;28;20073;-63
2023/03/29 17:35:45;;;;;;;11.98;7.20;;;11.90;99.60;;;;;;10523506;28;20043;-64
2023/03/29 17:40:53;;;;;;;15.27;7.80;;;11.90;99.60;;;;;;10516762;28;20103;-65
2023/03/29 17:45:54;;;;;;;12.15;7.20;;;11.90;99.90;;;;;;10527526;28;20040;-65
2023/03/29 17:50:55;;;;;;;15.25;8.63;;;11.90;99.90;;;;;;10522087;28;20493;-63
2023/03/29 17:55:56;;;;;;;14.32;7.57;;;11.90;99.90;;;;;;10510191;28;20452;-65
2023/03/29 18:00:57;;;;;;;12.40;8.00;;;11.90;99.90;;;;;;10518792;28;20024;-64
2023/03/29 18:05:57;;;;;;;12.85;7.43;;;11.90;99.90;;;;;;10516346;28;20036;-62
2023/03/29 18:11:06;;;;;;;13.10;7.18;;;11.90;99.90;;;;;;10526768;28;20388;-64
2023/03/29 18:16:07;;;;;;;11.57;6.90;;;11.90;99.90;;;;;;10529874;28;20054;-63
2023/03/29 18:21:11;;;;;;;13.70;7.20;;;11.80;99.90;;;;;;10532433;28;20028;-63
2023/03/29 18:26:13;;;;;;;10.82;7.05;;;11.80;99.90;;;;;;10525595;28;20027;-64
2023/03/29 18:31:14;;;;;;;10.85;6.78;;;11.80;99.90;;;;;;10528231;28;20024;-64
2023/03/29 18:36:15;;;;;;;11.02;7.05;;;11.80;99.90;;;;;;10524533;28;20035;-64
2023/03/29 18:41:16;;;;;;;10.88;7.43;;;12.40;99.90;;;;;;10531855;27;20031;-64
2023/03/29 18:46:16;;;;;;;10.10;6.75;;;11.80;99.90;;;;;;10528863;28;20024;-64
2023/03/29 18:51:17;;;;;;;11.15;7.13;;;11.80;99.90;;;;;;10526872;28;20021;-64
2023/03/29 18:56:18;;;;;;;11.45;6.68;;;11.70;99.90;;;;;;10531197;28;20080;-63
2023/03/29 19:01:19;;;;;;;11.00;6.85;;;11.80;99.90;;;;;;10527786;28;20446;-64
2023/03/29 19:06:20;;;;;;;8.75;6.40;;;11.80;99.90;;;;;;10524301;28;20114;-64
2023/03/29 19:11:21;;;;;;;11.25;6.78;;;11.70;99.90;;;;;;10520471;28;20034;-65
2023/03/29 19:16:22;;;;;;;16.33;6.80;;;11.70;99.90;;;;;;10521681;28;20032;-64
2023/03/29 19:21:23;;;;;;;11.70;7.40;;;11.70;99.90;;;;;;10522284;28;20035;-64
2023/03/29 19:26:23;;;;;;;11.32;7.38;;;11.70;99.90;;;;;;10516074;28;20028;-64
2023/03/29 19:31:25;;;;;;;10.57;6.70;;;11.70;99.90;;;;;;10521136;28;20028;-63
2023/03/29 19:36:27;;;;;;;12.38;6.65;;;11.70;99.90;;;;;;10523932;28;20030;-63
2023/03/29 19:41:27;;;;;;;9.73;6.85;;;11.70;99.90;;;;;;10524630;28;20115;-64
2023/03/29 19:46:28;;;;;;;9.70;6.13;;;11.70;99.90;;;;;;10518330;28;20042;-63
2023/03/29 19:51:29;;;;;;;10.73;6.45;;;11.70;99.90;;;;;;10518906;28;20107;-64
2023/03/29 19:56:31;;;;;;;10.80;6.22;;;11.70;99.90;;;;;;10524704;28;20123;-64
2023/03/29 20:01:32;;;;;;;11.25;6.10;;;11.70;99.90;;;;;;10524440;28;20027;-65
2023/03/29 20:06:33;;;;;;;11.27;6.80;;;11.60;99.90;;;;;;10524811;28;20026;-64
2023/03/29 20:11:34;;;;;;;10.75;6.30;;;11.60;99.90;;;;;;10523914;28;20085;-64
2023/03/29 20:16:35;;;;;;;9.18;6.15;;;11.60;99.90;;;;;;10520296;28;20036;-64
2023/03/29 20:21:36;;;;;;;9.75;6.30;;;11.60;99.90;;;;;;10516579;28;20028;-65
2023/03/29 20:26:36;;;;;;;9.30;6.45;;;11.60;99.90;;;;;;10518253;28;20442;-64
2023/03/29 20:31:37;;;;;;;11.48;5.50;;;11.60;99.90;;;;;;10520799;28;20024;-64
2023/03/29 20:36:39;;;;;;;9.98;6.45;;;11.60;99.90;;;;;;10516830;28;20024;-64
2023/03/29 20:41:39;;;;;;;9.60;6.45;;;11.60;99.90;;;;;;10519831;28;20036;-64
2023/03/29 20:46:53;;;;;;;8.88;6.13;;;11.60;99.90;;;;;;10523327;28;20454;-64
2023/03/29 20:51:59;;;;;;;10.07;6.35;;;11.50;99.90;;;;;;10517436;28;20024;-63
2023/03/29 20:57:00;;;;;;;9.02;5.97;;;11.60;99.90;;;;;;10524161;28;20044;-63
2023/03/29 21:02:00;;;;;;;8.98;5.60;;;11.60;99.90;;;;;;10519408;28;20462;-64
2023/03/29 21:07:03;;;;;;;8.50;5.85;;;11.50;99.90;;;;;;10512876;28;20558;-63
2023/03/29 21:12:04;;;;;;;8.25;5.47;;;11.50;99.90;;;;;;10524291;28;20018;-64
2023/03/29 21:17:05;;;;;;;9.57;6.00;;;11.50;99.90;;;;;;10516701;28;20032;-64
2023/03/29 21:22:06;;;;;;;8.20;5.68;;;11.50;99.90;;;;;;10518389;28;20433;-63
2023/03/29 21:27:06;;;;;;;9.98;5.57;;;11.50;99.90;;;;;;10521510;28;20024;-63
2023/03/29 21:32:07;;;;;;;9.52;5.45;;;11.50;99.90;;;;;;10517990;28;20064;-63
2023/03/29 21:37:08;;;;;;;7.10;5.32;;;11.50;99.90;;;;;;10516578;28;20030;-64
2023/03/29 21:42:09;;;;;;;8.80;5.22;;;11.50;99.90;;;;;;10513905;28;20049;-65
2023/03/29 21:47:10;;;;;;;10.23;5.68;;;11.50;99.90;;;;;;10520436;28;20161;-64
2023/03/29 21:52:10;;;;;;;7.00;5.03;;;11.50;99.90;;;;;;10517824;28;20031;-64
2023/03/29 21:57:11;;;;;;;8.57;5.25;;;11.50;99.90;;;;;;10519564;28;20024;-64
2023/03/29 22:02:11;;;;;;;8.05;5.30;;;11.50;99.90;;;;;;10521353;28;20039;-63
2023/03/29 22:07:12;;;;;;;8.32;5.32;;;11.50;99.90;;;;;;10521882;28;20038;-63
2023/03/29 22:12:13;;;;;;;7.20;4.72;;;11.50;99.90;;;;;;10521444;28;20032;-64
2023/03/29 22:17:14;;;;;;;7.32;4.68;;;11.50;99.90;;;;;;10522810;28;20103;-65
2023/03/29 22:22:16;;;;;;;7.90;4.78;;;11.50;99.90;;;;;;10523178;28;20031;-64
2023/03/29 22:27:16;;;;;;;6.25;4.50;;;11.50;99.90;;;;;;10522371;28;20100;-64
2023/03/29 22:32:17;;;;;;;8.07;5.13;;;11.50;99.90;;;;;;10522670;28;20020;-64
2023/03/29 22:37:21;;;;;;;8.05;5.18;;;11.50;99.90;;;;;;10520647;28;20024;-63
2023/03/29 22:42:21;;;;;;;7.25;4.35;;;11.50;99.90;;;;;;10515102;28;20103;-64
2023/03/29 22:47:22;;;;;;;6.78;4.57;;;11.50;99.90;;;;;;10521489;28;20103;-64
2023/03/29 22:52:23;;;;;;;5.97;4.15;;;11.50;99.90;;;;;;10516491;28;20023;-64
2023/03/29 22:57:23;;;;;;;8.10;4.60;;;11.50;99.90;;;;;;10522274;28;20020;-64
2023/03/29 23:02:24;;;;;;;5.53;4.30;;;11.50;99.90;;;;;;10528856;28;20024;-63
2023/03/29 23:07:25;;;;;;;6.20;3.90;;;11.50;99.90;;;;;;10529034;28;20554;-63
2023/03/29 23:12:25;;;;;;;6.07;3.85;;;11.50;99.90;;;;;;10528875;28;20035;-64
2023/03/29 23:17:26;;;;;;;8.15;4.53;;;11.50;99.90;;;;;;10528726;28;20020;-64
2023/03/29 23:22:27;;;;;;;6.57;4.40;;;11.50;99.90;;;;;;10526652;28;20479;-63
2023/03/29 23:27:28;;;;;;;5.55;3.83;;;11.50;99.90;;;;;;10529149;28;20050;-64
2023/03/29 23:32:29;;;;;;;6.75;4.38;;;11.50;99.90;;;;;;10524535;28;20031;-64
2023/03/29 23:37:29;;;;;;;6.90;4.32;;;11.50;99.90;;;;;;10527472;28;20031;-64
2023/03/29 23:42:30;;;;;;;6.15;4.20;;;11.50;99.90;;;;;;10524793;28;20024;-63
2023/03/29 23:47:31;;;;;;;6.00;3.78;;;11.50;99.90;;;;;;10526577;28;20499;-64
2023/03/29 23:52:32;;;;;;;7.32;3.85;;;11.50;99.90;;;;;;10522552;28;20038;-63
2023/03/29 23:57:34;;;;;;;8.25;4.35;;;11.50;99.90;;;;;;10522712;28;20032;-64
